BIKF

Keflavik International Airport

Reykjavík, Iceland
METAR BIKF 172230Z 23004KT 9999 FEW008 08/07 Q1010
Observed Flight Rules
Jul-17 @ 22:30 UTC (28 minutes ago) Visual Flight Rules
Wind Visibility Clouds
230° at 4 knots 10,000+ meters
  • Few at 800' AGL
Temperatures Readings
Current 8°C / 46°F
Dewpoint 7°C / 45°F
Humidity 93%
Altimeter 29.82" Hg
Pressure 1010 hPa
Elevation 54
METAR BIKF 172230Z 23004KT 9999 FEW008 08/07 Q1010
Observed Flight Rules
Jul-17 @ 22:30 UTC
(28 minutes ago)
VFR
Wind Visibility
230° at 4 knots 10,000+ meters
Clouds
  • Few at 800' AGL
Temperature Dewpoint
8°C / 46°F 7°C / 45°F
Humidity Altimeter Pressure
93% 29.82" Hg 1010 hPa